EST,Max TemperatureF,Mean TemperatureF,Min TemperatureF,Max Dew PointF,MeanDew PointF,Min DewpointF,Max Humidity, Mean Humidity, Min Humidity, Max Sea Level PressureIn, Mean Sea Level PressureIn, Min Sea Level PressureIn, Max VisibilityMiles, Mean VisibilityMiles, Min VisibilityMiles, Max Wind SpeedMPH, Mean Wind SpeedMPH, Max Gust SpeedMPH,PrecipitationIn, CloudCover, Events, WindDirDegrees
2013-12-1,60,42,24,36,28,23,100,74,33,30.37,30.18,30.03,10,10,5,7,1,,0.00,1,,229
2013-12-2,50,34,26,36,29,27,100,96,54,30.02,29.96,29.92,10,8,5,4,0,,0.00,1,,260
2013-12-3,,,,,,,,,,,,,,,,,,,,,,
2013-12-4,,,,,,,,,,,,,,,,,,,,,,
2013-12-5,,,,,,,,,,,,,,,,,,,,,,
2013-12-6,,,,,,,,,,,,,,,,,,,,,,
2013-12-7,,,,,,,,,,,,,,,,,,,,,,
2013-12-8,,,,,,,,,,,,,,,,,,,,,,
2013-12-9,,,,,,,,,,,,,,,,,,,,,,
2013-12-10,,,,,,,,,,,,,,,,,,,,,,
2013-12-11,51,40,28,28,23,18,93,55,28,30.44,30.33,30.29,10,10,10,9,2,16,0.00,0,,237
2013-12-12,48,36,24,27,16,0,100,55,14,30.40,30.34,30.28,10,10,10,9,1,,0.00,0,,312
2013-12-13,51,35,19,30,21,12,100,66,25,30.36,30.31,30.25,10,10,10,12,1,,0.00,0,,227
2013-12-14,44,40,35,37,35,30,100,89,66,30.25,30.03,29.80,10,7,1,9,2,,0.55,7,Rain,6
2013-12-15,53,40,28,41,33,25,100,75,41,30.10,29.91,29.75,10,7,0,10,2,16,0.00,3,Fog-Rain,292
2013-12-16,57,40,24,32,28,23,100,66,31,30.16,30.11,30.08,10,10,7,10,2,,0.00,0,,232
2013-12-17,62,44,26,32,29,19,100,57,29,30.13,30.04,29.91,10,10,10,14,3,25,0.00,1,,256
2013-12-18,51,40,26,23,16,5,86,43,16,30.28,30.21,30.06,10,10,10,10,4,18,0.00,0,,272
2013-12-19,64,44,23,28,22,12,93,57,14,30.31,30.26,30.21,10,10,10,13,1,20,0.00,0,,225
2013-12-20,62,48,35,48,39,28,87,70,52,30.24,30.19,30.14,10,10,10,14,2,21,0.00,3,,225
2013-12-21,68,57,46,61,53,46,100,82,68,30.14,30.08,30.01,10,10,5,8,2,,0.00,6,,208
2013-12-22,71,66,62,64,63,57,100,89,73,30.08,30.03,29.99,10,9,2,14,7,24,1.19,8,Rain,201
2013-12-23,64,54,44,63,53,34,100,86,62,30.18,30.08,30.00,10,9,4,9,4,,1.14,7,Rain,247
2013-12-24,46,37,28,34,24,12,100,59,31,30.44,30.29,30.17,10,10,10,13,3,18,0.00,2,,327
2013-12-25,39,29,19,19,12,3,86,54,22,30.53,30.44,30.37,10,10,10,6,2,,0.00,0,,9
2013-12-26,53,37,21,27,21,16,93,67,26,30.37,30.31,30.24,10,10,10,6,0,,0.00,0,,256
2013-12-27,51,37,23,27,22,14,93,68,24,30.47,30.40,30.35,10,10,10,4,0,,0.00,0,,40
2013-12-28,55,38,21,41,27,21,100,69,26,30.40,30.31,30.13,10,10,7,5,1,,0.04,3,Rain,247
2013-12-29,57,46,35,46,41,36,100,88,62,30.12,29.88,29.78,10,8,2,14,4,,0.96,5,Rain,286
2013-12-30,53,42,30,39,36,30,100,84,51,30.12,30.05,29.95,10,10,10,6,1,,0.00,1,,239
2013-12-31,50,38,26,36,26,16,100,68,26,30.36,30.25,30.10,10,10,10,8,2,,0.00,1,,275